Time;durP1;ratioP1;P1;durP2;ratioP2;P2;SDS_P1;SDS_P2;PMS_P1;PMS_P2;Temp;Humidity;BMP_temperature;BMP_pressure;BME280_temperature;BME280_humidity;BME280_pressure;Samples;Min_cycle;Max_cycle;Signal;HPM_P1;HPM_P2
2023/06/23 15:22:21;;;;;;;10.45;7.05;;;;;;;;;;6214900;23;20048;-65
2023/06/23 15:24:49;;;;;;;11.73;6.63;;;;;;;;;;6215200;23;20020;-66
2023/06/23 15:27:14;;;;;;;14.65;6.82;;;;;;;;;;6215421;23;20336;-65
2023/06/23 15:29:40;;;;;;;11.00;6.88;;;;;;;;;;6215133;23;20008;-67
2023/06/23 15:32:07;;;;;;;13.45;6.88;;;;;;;;;;6117115;23;96356;-68
2023/06/23 15:57:49;;;;;;;10.90;6.85;;;;;;;;;;6093249;23;20064;-58
2023/06/23 16:00:15;;;;;;;13.00;7.18;;;;;;;;;;6154836;23;20017;-58
2023/06/23 16:02:40;;;;;;;15.60;6.80;;;;;;;;;;6155294;23;20006;-58
2023/06/23 16:05:06;;;;;;;10.98;6.90;;;;;;;;;;6153329;23;20464;-58
2023/06/23 16:07:32;;;;;;;8.43;6.70;;;;;;;;;;6152934;23;20028;-61
2023/06/23 16:09:57;;;;;;;11.77;6.30;;;;;;;;;;6153108;23;20009;-59
2023/06/23 16:12:23;;;;;;;9.23;6.28;;;;;;;;;;6153468;23;20017;-58
2023/06/23 16:14:48;;;;;;;14.32;7.00;;;;;;;;;;6153285;23;20013;-58
2023/06/23 16:17:14;;;;;;;10.30;6.72;;;;;;;;;;6153508;23;20006;-59
2023/06/23 16:19:40;;;;;;;11.48;6.85;;;;;;;;;;6152893;23;20001;-58
2023/06/23 16:22:05;;;;;;;11.93;6.65;;;;;;;;;;6153261;23;20005;-58
2023/06/23 16:24:31;;;;;;;10.95;7.03;;;;;;;;;;6153389;23;20005;-59
2023/06/23 16:26:57;;;;;;;10.15;6.78;;;;;;;;;;6151576;23;20328;-58
2023/06/23 16:29:22;;;;;;;12.43;7.32;;;;;;;;;;6153059;23;20005;-59
2023/06/23 16:31:48;;;;;;;10.32;6.88;;;;;;;;;;6153028;23;20013;-58
2023/06/23 16:34:14;;;;;;;11.85;7.10;;;;;;;;;;6153056;23;20033;-58
2023/06/23 16:36:41;;;;;;;9.38;6.68;;;;;;;;;;6153071;23;20089;-58
2023/06/23 16:39:08;;;;;;;13.45;7.07;;;;;;;;;;6153078;23;20006;-60
2023/06/23 16:41:34;;;;;;;10.50;6.78;;;;;;;;;;6153237;23;20013;-64
2023/06/23 16:44:00;;;;;;;10.05;6.70;;;;;;;;;;6153071;23;20016;-64
2023/06/23 16:46:26;;;;;;;10.80;7.20;;;;;;;;;;6152686;23;20037;-63
2023/06/23 16:48:53;;;;;;;9.43;6.57;;;;;;;;;;6152807;23;19998;-65
2023/06/23 16:51:21;;;;;;;7.93;6.63;;;;;;;;;;6152547;23;20001;-66
2023/06/23 16:53:46;;;;;;;9.90;6.43;;;;;;;;;;6152683;23;20469;-64
2023/06/23 16:56:12;;;;;;;13.85;7.13;;;;;;;;;;6152926;23;20001;-65
2023/06/23 16:58:37;;;;;;;13.85;7.18;;;;;;;;;;6152603;23;20020;-62
2023/06/23 17:01:06;;;;;;;12.23;6.97;;;;;;;;;;6153028;23;20010;-63
2023/06/23 17:03:32;;;;;;;15.00;7.13;;;;;;;;;;6154818;23;20001;-59
2023/06/23 17:05:57;;;;;;;10.98;6.80;;;;;;;;;;6155280;23;20006;-58
2023/06/23 17:08:23;;;;;;;9.70;6.78;;;;;;;;;;6155119;23;20346;-59
2023/06/23 17:10:49;;;;;;;8.63;6.63;;;;;;;;;;6153112;23;20081;-59
2023/06/23 17:13:15;;;;;;;13.57;7.50;;;;;;;;;;6154886;23;20048;-58
2023/06/23 17:15:40;;;;;;;8.70;6.55;;;;;;;;;;6153371;23;20145;-59
2023/06/23 17:18:06;;;;;;;10.55;6.93;;;;;;;;;;6154624;23;20081;-58
2023/06/23 17:20:31;;;;;;;9.88;6.68;;;;;;;;;;6154445;23;20010;-58
2023/06/23 17:22:57;;;;;;;10.32;6.68;;;;;;;;;;6155027;23;20001;-58
2023/06/23 17:25:23;;;;;;;8.52;6.93;;;;;;;;;;6154537;23;20497;-59
2023/06/23 17:27:49;;;;;;;12.68;6.78;;;;;;;;;;6154638;23;20005;-58
2023/06/23 17:30:17;;;;;;;13.15;7.25;;;;;;;;;;6153068;23;20016;-60
2023/06/23 17:32:43;;;;;;;12.40;6.57;;;;;;;;;;6154637;23;20060;-63
2023/06/23 17:35:09;;;;;;;17.80;6.80;;;;;;;;;;6154476;23;20009;-61
2023/06/23 17:37:34;;;;;;;17.02;7.18;;;;;;;;;;6154349;23;20068;-62
2023/06/23 17:40:00;;;;;;;11.00;6.88;;;;;;;;;;6154843;23;20409;-60
2023/06/23 17:42:25;;;;;;;13.20;6.18;;;;;;;;;;6154496;23;20529;-61
2023/06/23 17:44:51;;;;;;;16.67;6.55;;;;;;;;;;6154830;23;20009;-61
2023/06/23 17:47:16;;;;;;;17.60;7.22;;;;;;;;;;6154508;23;20422;-59
2023/06/23 17:49:43;;;;;;;11.27;6.97;;;;;;;;;;6154854;23;20037;-62
2023/06/23 17:52:09;;;;;;;17.42;6.60;;;;;;;;;;6154751;23;20409;-62
2023/06/23 17:54:34;;;;;;;17.67;7.10;;;;;;;;;;6154526;23;20010;-63
2023/06/23 17:57:01;;;;;;;20.73;6.97;;;;;;;;;;6154038;23;20096;-62
2023/06/23 17:59:27;;;;;;;27.00;6.72;;;;;;;;;;6154920;23;20033;-62
2023/06/23 18:01:53;;;;;;;45.72;5.97;;;;;;;;;;6154307;23;20513;-62
2023/06/23 18:04:19;;;;;;;94.45;8.30;;;;;;;;;;6154291;23;20008;-63
2023/06/23 18:06:44;;;;;;;71.25;6.28;;;;;;;;;;6154311;23;20084;-64
2023/06/23 18:09:10;;;;;;;84.68;6.32;;;;;;;;;;6154585;23;20013;-64
2023/06/23 18:11:36;;;;;;;78.85;6.47;;;;;;;;;;6154214;23;20055;-65
2023/06/23 18:14:02;;;;;;;69.00;6.40;;;;;;;;;;6154385;23;20009;-64
2023/06/23 18:16:28;;;;;;;64.80;5.88;;;;;;;;;;6154356;23;20008;-64
2023/06/23 18:18:54;;;;;;;78.00;5.93;;;;;;;;;;6153868;23;20005;-64
2023/06/23 18:21:19;;;;;;;64.70;7.20;;;;;;;;;;6153958;23;20005;-64
2023/06/23 18:23:45;;;;;;;48.50;5.00;;;;;;;;;;6154085;23;20009;-65
2023/06/23 18:26:11;;;;;;;63.08;6.43;;;;;;;;;;6154181;23;20005;-64
2023/06/23 18:28:37;;;;;;;53.40;5.93;;;;;;;;;;6154358;23;20060;-65
2023/06/23 18:31:03;;;;;;;62.75;6.57;;;;;;;;;;6153869;23;20430;-64
2023/06/23 18:33:30;;;;;;;52.88;6.45;;;;;;;;;;6154325;23;20002;-64
2023/06/23 18:35:55;;;;;;;58.92;6.28;;;;;;;;;;6154186;23;20331;-65
2023/06/23 18:38:21;;;;;;;47.70;5.57;;;;;;;;;;6152930;23;20025;-65
2023/06/23 18:40:47;;;;;;;37.17;4.95;;;;;;;;;;6152177;23;20009;-64
2023/06/23 18:43:12;;;;;;;47.40;5.22;;;;;;;;;;6151709;23;20312;-64
2023/06/23 18:45:38;;;;;;;38.53;5.93;;;;;;;;;;6152823;23;20037;-64
2023/06/23 18:48:04;;;;;;;47.22;6.35;;;;;;;;;;6154269;23;20006;-65
2023/06/23 18:50:29;;;;;;;28.35;4.20;;;;;;;;;;6153991;23;20339;-64
2023/06/23 18:52:55;;;;;;;39.90;4.80;;;;;;;;;;6153744;23;20013;-64
2023/06/23 19:06:59;;;;;;;47.55;5.78;;;;;;;;;;4379384;27;22285536;-64
2023/06/23 19:09:25;;;;;;;44.20;6.18;;;;;;;;;;5142174;27;20022;-67
2023/06/23 19:11:51;;;;;;;32.90;5.82;;;;;;;;;;5139994;27;20023;-65
2023/06/23 19:14:17;;;;;;;36.92;5.15;;;;;;;;;;5139155;27;20083;-62
2023/06/23 19:16:42;;;;;;;44.45;5.80;;;;;;;;;;5140438;27;20023;-66
2023/06/23 19:19:08;;;;;;;37.13;4.47;;;;;;;;;;5141873;27;20045;-65
2023/06/23 19:21:33;;;;;;;25.27;4.32;;;;;;;;;;5137743;27;20022;-66
2023/06/23 19:23:59;;;;;;;32.13;5.20;;;;;;;;;;5137332;27;20023;-62
2023/06/23 19:26:25;;;;;;;30.42;3.95;;;;;;;;;;5138127;27;20063;-62
2023/06/23 19:28:50;;;;;;;38.88;4.53;;;;;;;;;;5140242;27;20022;-61
2023/06/23 19:31:16;;;;;;;40.58;5.25;;;;;;;;;;5139702;27;20019;-62
2023/06/23 19:33:42;;;;;;;37.30;4.55;;;;;;;;;;5133754;27;20027;-61
2023/06/23 19:36:10;;;;;;;37.80;4.35;;;;;;;;;;5129843;27;20059;-62
2023/06/23 19:38:36;;;;;;;27.67;3.78;;;;;;;;;;5129788;27;20038;-61
2023/06/23 19:44:12;;;;;;;39.35;4.95;;;;;;;;;;5129499;28;20490;-62
2023/06/23 19:46:47;;;;;;;23.60;4.40;;;;;;;;;;5112425;28;20020;-62
2023/06/23 19:49:20;;;;;;;28.13;5.00;;;;;;;;;;5129788;27;20023;-61
2023/06/23 19:51:50;;;;;;;24.92;4.93;;;;;;;;;;5128224;28;20564;-62
2023/06/23 19:54:19;;;;;;;;;;;;;;;;;;5120804;27;20360;-63
2023/06/23 19:57:31;;;;;;;17.63;3.92;;;;;;;;;;5119148;27;20013;-62
2023/06/23 20:00:07;;;;;;;28.65;3.90;;;;;;;;;;5389413;22;20064;-66
2023/06/23 20:02:33;;;;;;;11.10;3.10;;;;;;;;;;5067500;28;20078;-65
2023/06/23 20:04:58;;;;;;;10.70;3.50;;;;;;;;;;5067002;28;20116;-66
2023/06/23 20:20:03;;;;;;;12.80;3.97;;;;;;;;;;5089797;27;20454;-60
2023/06/23 20:22:32;;;;;;;18.10;3.90;;;;;;;;;;5090135;28;20047;-67
2023/06/23 20:24:58;;;;;;;12.40;4.10;;;;;;;;;;5089976;28;20514;-63
2023/06/23 20:27:23;;;;;;;11.20;3.67;;;;;;;;;;5089900;28;20024;-67
2023/06/23 20:29:50;;;;;;;13.88;3.67;;;;;;;;;;5089510;28;20486;-63
2023/06/23 20:32:15;;;;;;;10.43;3.55;;;;;;;;;;5089447;28;20395;-60
2023/06/23 20:34:41;;;;;;;15.15;5.00;;;;;;;;;;5089457;28;20029;-62
2023/06/23 20:37:08;;;;;;;17.75;3.90;;;;;;;;;;5089673;28;20107;-60
2023/06/23 20:39:33;;;;;;;11.50;3.45;;;;;;;;;;5089463;28;20024;-59
2023/06/23 20:41:59;;;;;;;21.35;4.07;;;;;;;;;;5088428;28;20020;-63
2023/06/23 20:44:24;;;;;;;9.75;3.97;;;;;;;;;;5089371;28;20487;-60
2023/06/23 20:46:50;;;;;;;22.60;4.45;;;;;;;;;;5089340;28;20016;-61
2023/06/23 20:49:16;;;;;;;12.18;3.70;;;;;;;;;;5089499;28;20032;-60
2023/06/23 20:51:44;;;;;;;13.40;4.13;;;;;;;;;;5089330;28;20357;-60
2023/06/23 20:54:10;;;;;;;14.05;4.63;;;;;;;;;;5089250;28;20021;-71
2023/06/23 20:56:36;;;;;;;10.00;3.90;;;;;;;;;;5088679;28;20039;-61
2023/06/23 20:59:02;;;;;;;10.77;3.50;;;;;;;;;;5087487;28;20036;-61
2023/06/23 21:01:27;;;;;;;9.57;3.75;;;;;;;;;;5088326;28;20025;-60
2023/06/23 21:03:53;;;;;;;10.90;3.47;;;;;;;;;;5088486;28;20464;-60
2023/06/23 21:06:18;;;;;;;14.20;3.85;;;;;;;;;;5088355;28;20108;-60
2023/06/23 21:08:44;;;;;;;15.90;4.03;;;;;;;;;;5088023;28;20020;-61
2023/06/23 21:11:10;;;;;;;9.65;3.63;;;;;;;;;;5087874;28;20423;-60
2023/06/23 21:13:35;;;;;;;9.55;3.70;;;;;;;;;;5085436;28;20365;-61
2023/06/23 21:16:01;;;;;;;7.55;3.60;;;;;;;;;;5087564;28;20024;-67
2023/06/23 21:18:28;;;;;;;6.22;3.22;;;;;;;;;;5095016;28;20049;-62
2023/06/23 21:20:53;;;;;;;8.23;3.67;;;;;;;;;;5090675;28;20020;-61
2023/06/23 21:23:19;;;;;;;10.10;3.83;;;;;;;;;;5091474;28;20115;-60
2023/06/23 21:25:45;;;;;;;7.20;3.53;;;;;;;;;;5093800;28;20020;-60
2023/06/23 21:41:53;;;;;;;7.50;3.67;;;;;;;;;;5171634;27;20577;-59
2023/06/23 21:44:18;;;;;;;11.27;3.90;;;;;;;;;;5170606;27;20118;-59
2023/06/23 21:46:44;;;;;;;8.02;3.55;;;;;;;;;;5171573;27;20098;-59
2023/06/23 21:49:09;;;;;;;11.48;3.45;;;;;;;;;;5171526;27;20015;-59
2023/06/23 21:51:35;;;;;;;5.28;3.50;;;;;;;;;;5171622;27;20022;-58
2023/06/23 21:54:01;;;;;;;8.07;3.30;;;;;;;;;;5171759;27;20030;-58
2023/06/23 21:56:26;;;;;;;7.18;3.15;;;;;;;;;;5172136;27;20031;-58
2023/06/23 21:58:52;;;;;;;11.30;3.63;;;;;;;;;;5171744;27;20466;-59
2023/06/23 22:01:17;;;;;;;7.97;3.30;;;;;;;;;;5171752;27;20019;-58
2023/06/23 22:03:43;;;;;;;10.05;3.60;;;;;;;;;;5172090;27;20027;-58
2023/06/23 22:06:10;;;;;;;6.85;3.80;;;;;;;;;;5171562;27;20053;-59
2023/06/23 22:08:35;;;;;;;7.15;3.60;;;;;;;;;;5171884;27;20395;-60
2023/06/23 22:11:01;;;;;;;9.10;3.60;;;;;;;;;;5171722;27;20023;-59
2023/06/23 22:13:29;;;;;;;8.68;3.47;;;;;;;;;;5171532;27;20420;-59
2023/06/23 22:15:55;;;;;;;7.55;3.40;;;;;;;;;;5171538;27;20103;-59
2023/06/23 22:18:21;;;;;;;10.13;3.78;;;;;;;;;;5171386;27;20482;-59
2023/06/23 22:20:47;;;;;;;8.85;3.50;;;;;;;;;;5171624;27;20075;-59
2023/06/23 22:23:13;;;;;;;9.35;3.53;;;;;;;;;;5171649;27;20015;-59
2023/06/23 22:25:38;;;;;;;8.25;3.30;;;;;;;;;;5171485;27;20050;-59
2023/06/23 22:28:04;;;;;;;7.50;3.55;;;;;;;;;;5171253;27;20474;-59
2023/06/23 22:30:29;;;;;;;7.78;3.20;;;;;;;;;;5171217;27;20031;-59
2023/06/23 22:32:55;;;;;;;8.40;3.10;;;;;;;;;;5171080;27;20018;-59
2023/06/23 22:35:21;;;;;;;9.07;3.47;;;;;;;;;;5152872;27;20031;-59
2023/06/23 22:37:46;;;;;;;8.52;3.72;;;;;;;;;;5171108;27;20026;-59
2023/06/23 22:40:13;;;;;;;8.63;3.45;;;;;;;;;;5170716;27;20065;-60
2023/06/23 22:42:39;;;;;;;5.80;3.22;;;;;;;;;;5158280;27;20184;-60
2023/06/23 22:45:05;;;;;;;5.00;3.13;;;;;;;;;;5156959;27;20203;-59
2023/06/23 22:47:34;;;;;;;10.07;3.20;;;;;;;;;;5157215;27;20046;-59
2023/06/23 22:50:01;;;;;;;5.85;3.38;;;;;;;;;;5156817;27;20086;-59
2023/06/23 22:52:28;;;;;;;7.40;3.30;;;;;;;;;;5156888;27;20034;-60
2023/06/23 22:54:54;;;;;;;8.55;3.47;;;;;;;;;;5156883;27;20058;-60
2023/06/23 22:57:21;;;;;;;6.15;3.10;;;;;;;;;;5156813;27;20060;-59
2023/06/23 22:59:46;;;;;;;6.25;3.25;;;;;;;;;;5156662;27;20390;-59
2023/06/23 23:02:12;;;;;;;7.07;3.08;;;;;;;;;;5156941;27;20110;-59
2023/06/23 23:04:37;;;;;;;5.85;3.33;;;;;;;;;;5138106;27;20027;-60
2023/06/23 23:07:03;;;;;;;6.88;3.28;;;;;;;;;;5156574;27;20374;-60
2023/06/23 23:09:28;;;;;;;10.02;3.30;;;;;;;;;;5156788;27;20026;-59
2023/06/23 23:11:54;;;;;;;6.57;3.22;;;;;;;;;;5156511;27;20054;-60
2023/06/23 23:14:19;;;;;;;7.68;3.20;;;;;;;;;;5156530;27;20026;-59
2023/06/23 23:16:45;;;;;;;6.22;3.38;;;;;;;;;;5156436;27;20018;-59
2023/06/23 23:19:10;;;;;;;6.78;3.33;;;;;;;;;;5156318;27;20026;-60
2023/06/23 23:21:37;;;;;;;5.68;2.78;;;;;;;;;;5156666;27;20025;-61
2023/06/23 23:24:04;;;;;;;7.55;3.40;;;;;;;;;;5156573;27;20033;-59
2023/06/23 23:26:29;;;;;;;4.72;3.22;;;;;;;;;;5156271;27;20019;-60
2023/06/23 23:28:56;;;;;;;6.57;3.17;;;;;;;;;;5156343;27;20109;-67
2023/06/23 23:31:25;;;;;;;9.10;3.40;;;;;;;;;;5156280;27;20030;-64
2023/06/23 23:33:54;;;;;;;5.97;3.28;;;;;;;;;;5156405;27;20027;-60
2023/06/23 23:36:21;;;;;;;5.78;3.33;;;;;;;;;;5156006;27;20031;-59
2023/06/23 23:38:48;;;;;;;6.90;3.42;;;;;;;;;;5156307;27;20373;-60
2023/06/23 23:41:14;;;;;;;4.45;2.90;;;;;;;;;;5155794;27;20065;-60
2023/06/23 23:43:40;;;;;;;3.88;3.17;;;;;;;;;;5155853;27;20048;-59
2023/06/23 23:46:05;;;;;;;6.35;3.17;;;;;;;;;;5156163;27;20023;-60
2023/06/23 23:48:31;;;;;;;5.00;3.20;;;;;;;;;;5156128;27;20058;-59
2023/06/23 23:50:56;;;;;;;6.68;3.10;;;;;;;;;;5155690;27;20471;-60
2023/06/23 23:53:22;;;;;;;8.20;3.55;;;;;;;;;;5154630;27;20037;-60
2023/06/23 23:55:47;;;;;;;5.47;3.20;;;;;;;;;;5155672;27;20026;-60
2023/06/23 23:58:13;;;;;;;10.60;3.13;;;;;;;;;;5155555;27;20027;-59
